sensor_id;sensor_type;location;lat;lon;timestamp;temperature;humidity
59847;DHT22;45728;48.788;2.302;2023-06-10T00:01:59;25.00;97.20
59847;DHT22;45728;48.788;2.302;2023-06-10T00:04:26;25.00;97.70
59847;DHT22;45728;48.788;2.302;2023-06-10T00:06:52;24.90;97.70
59847;DHT22;45728;48.788;2.302;2023-06-10T00:09:19;24.80;97.80
59847;DHT22;45728;48.788;2.302;2023-06-10T00:11:47;24.80;98.00
59847;DHT22;45728;48.788;2.302;2023-06-10T00:14:13;24.70;98.30
59847;DHT22;45728;48.788;2.302;2023-06-10T00:16:40;24.60;98.40
59847;DHT22;45728;48.788;2.302;2023-06-10T00:19:06;24.60;98.40
59847;DHT22;45728;48.788;2.302;2023-06-10T00:21:34;24.50;98.40
59847;DHT22;45728;48.788;2.302;2023-06-10T00:24:03;24.60;98.30
59847;DHT22;45728;48.788;2.302;2023-06-10T00:26:31;24.60;98.40
59847;DHT22;45728;48.788;2.302;2023-06-10T00:28:58;24.60;98.40
59847;DHT22;45728;48.788;2.302;2023-06-10T00:31:24;24.50;98.60
59847;DHT22;45728;48.788;2.302;2023-06-10T00:33:52;24.40;99.00
59847;DHT22;45728;48.788;2.302;2023-06-10T00:36:18;24.40;99.30
59847;DHT22;45728;48.788;2.302;2023-06-10T00:38:44;24.40;99.30
59847;DHT22;45728;48.788;2.302;2023-06-10T00:41:10;24.40;99.10
59847;DHT22;45728;48.788;2.302;2023-06-10T00:43:36;24.40;99.20
59847;DHT22;45728;48.788;2.302;2023-06-10T00:46:02;24.40;99.40
59847;DHT22;45728;48.788;2.302;2023-06-10T00:48:29;24.40;99.40
59847;DHT22;45728;48.788;2.302;2023-06-10T00:50:55;24.30;99.70
59847;DHT22;45728;48.788;2.302;2023-06-10T00:53:22;24.20;99.80
59847;DHT22;45728;48.788;2.302;2023-06-10T00:55:48;24.20;99.90
59847;DHT22;45728;48.788;2.302;2023-06-10T00:58:15;24.20;99.90
59847;DHT22;45728;48.788;2.302;2023-06-10T01:00:41;24.10;99.90
59847;DHT22;45728;48.788;2.302;2023-06-10T01:03:07;24.00;99.90
59847;DHT22;45728;48.788;2.302;2023-06-10T01:05:35;24.10;99.90
59847;DHT22;45728;48.788;2.302;2023-06-10T01:08:09;24.10;99.90
59847;DHT22;45728;48.788;2.302;2023-06-10T01:13:13;24.00;99.90
59847;DHT22;45728;48.788;2.302;2023-06-10T01:15:40;24.00;99.90
59847;DHT22;45728;48.788;2.302;2023-06-10T01:18:08;24.00;99.90
59847;DHT22;45728;48.788;2.302;2023-06-10T01:20:44;24.00;99.90
59847;DHT22;45728;48.788;2.302;2023-06-10T01:23:12;23.90;99.90
59847;DHT22;45728;48.788;2.302;2023-06-10T01:25:43;24.00;99.90
59847;DHT22;45728;48.788;2.302;2023-06-10T01:28:19;23.90;99.90
59847;DHT22;45728;48.788;2.302;2023-06-10T01:30:56;24.00;99.90
59847;DHT22;45728;48.788;2.302;2023-06-10T01:33:33;23.90;99.90
59847;DHT22;45728;48.788;2.302;2023-06-10T01:36:01;23.90;99.90
59847;DHT22;45728;48.788;2.302;2023-06-10T01:38:32;23.80;99.90
59847;DHT22;45728;48.788;2.302;2023-06-10T01:41:00;23.70;99.90
59847;DHT22;45728;48.788;2.302;2023-06-10T01:43:26;23.70;99.90
59847;DHT22;45728;48.788;2.302;2023-06-10T01:45:52;23.70;99.90
59847;DHT22;45728;48.788;2.302;2023-06-10T01:48:18;23.60;99.90
59847;DHT22;45728;48.788;2.302;2023-06-10T01:50:44;23.60;99.90
59847;DHT22;45728;48.788;2.302;2023-06-10T01:53:11;23.70;99.90
59847;DHT22;45728;48.788;2.302;2023-06-10T01:55:37;23.50;99.90
59847;DHT22;45728;48.788;2.302;2023-06-10T01:58:03;23.50;99.90
59847;DHT22;45728;48.788;2.302;2023-06-10T02:00:29;23.40;99.90
59847;DHT22;45728;48.788;2.302;2023-06-10T02:02:55;23.40;99.90
59847;DHT22;45728;48.788;2.302;2023-06-10T02:05:21;23.40;99.90
59847;DHT22;45728;48.788;2.302;2023-06-10T02:07:47;23.40;99.90
59847;DHT22;45728;48.788;2.302;2023-06-10T02:10:13;23.30;99.90
59847;DHT22;45728;48.788;2.302;2023-06-10T02:12:39;23.10;99.90
59847;DHT22;45728;48.788;2.302;2023-06-10T02:15:05;23.10;99.90
59847;DHT22;45728;48.788;2.302;2023-06-10T02:17:32;23.10;99.90
59847;DHT22;45728;48.788;2.302;2023-06-10T02:19:58;23.10;99.90
59847;DHT22;45728;48.788;2.302;2023-06-10T02:22:25;23.00;99.90
59847;DHT22;45728;48.788;2.302;2023-06-10T02:24:51;23.10;99.90
59847;DHT22;45728;48.788;2.302;2023-06-10T02:27:18;23.10;99.90
59847;DHT22;45728;48.788;2.302;2023-06-10T02:29:44;23.10;99.90
59847;DHT22;45728;48.788;2.302;2023-06-10T02:32:10;23.10;99.90
59847;DHT22;45728;48.788;2.302;2023-06-10T02:34:36;23.10;99.90
59847;DHT22;45728;48.788;2.302;2023-06-10T02:37:02;23.00;99.90
59847;DHT22;45728;48.788;2.302;2023-06-10T02:39:29;23.00;99.90
59847;DHT22;45728;48.788;2.302;2023-06-10T02:41:55;22.90;99.90
59847;DHT22;45728;48.788;2.302;2023-06-10T02:44:21;22.90;99.90
59847;DHT22;45728;48.788;2.302;2023-06-10T02:46:47;22.90;99.90
59847;DHT22;45728;48.788;2.302;2023-06-10T02:49:13;22.90;99.90
59847;DHT22;45728;48.788;2.302;2023-06-10T02:51:39;22.80;99.90
59847;DHT22;45728;48.788;2.302;2023-06-10T02:54:05;22.80;99.90
59847;DHT22;45728;48.788;2.302;2023-06-10T02:56:32;22.80;99.90
59847;DHT22;45728;48.788;2.302;2023-06-10T02:58:59;22.70;99.90
59847;DHT22;45728;48.788;2.302;2023-06-10T03:01:26;22.70;99.90
59847;DHT22;45728;48.788;2.302;2023-06-10T03:03:52;22.70;99.90
59847;DHT22;45728;48.788;2.302;2023-06-10T03:06:18;22.50;99.90
59847;DHT22;45728;48.788;2.302;2023-06-10T03:08:44;22.50;99.90
59847;DHT22;45728;48.788;2.302;2023-06-10T03:11:11;22.50;99.90
59847;DHT22;45728;48.788;2.302;2023-06-10T03:13:38;22.50;99.90
59847;DHT22;45728;48.788;2.302;2023-06-10T03:16:05;22.40;99.90
59847;DHT22;45728;48.788;2.302;2023-06-10T03:18:31;22.40;99.90
59847;DHT22;45728;48.788;2.302;2023-06-10T03:20:57;22.30;99.90
59847;DHT22;45728;48.788;2.302;2023-06-10T03:23:23;22.20;99.90
59847;DHT22;45728;48.788;2.302;2023-06-10T03:25:49;22.20;99.90
59847;DHT22;45728;48.788;2.302;2023-06-10T03:28:15;22.10;99.90
59847;DHT22;45728;48.788;2.302;2023-06-10T03:30:42;22.10;99.90
59847;DHT22;45728;48.788;2.302;2023-06-10T03:33:08;22.10;99.90
59847;DHT22;45728;48.788;2.302;2023-06-10T03:35:34;22.10;99.90
59847;DHT22;45728;48.788;2.302;2023-06-10T03:38:00;22.10;99.90
59847;DHT22;45728;48.788;2.302;2023-06-10T03:40:26;22.10;99.90
59847;DHT22;45728;48.788;2.302;2023-06-10T03:42:53;22.10;99.90
59847;DHT22;45728;48.788;2.302;2023-06-10T03:45:19;22.10;99.90
59847;DHT22;45728;48.788;2.302;2023-06-10T03:47:45;22.10;99.90
59847;DHT22;45728;48.788;2.302;2023-06-10T03:50:11;22.10;99.90
59847;DHT22;45728;48.788;2.302;2023-06-10T03:52:37;22.10;99.90
59847;DHT22;45728;48.788;2.302;2023-06-10T03:55:04;22.10;99.90
59847;DHT22;45728;48.788;2.302;2023-06-10T03:57:30;22.10;99.90
59847;DHT22;45728;48.788;2.302;2023-06-10T03:59:57;22.00;99.90
59847;DHT22;45728;48.788;2.302;2023-06-10T04:02:23;22.00;99.90
59847;DHT22;45728;48.788;2.302;2023-06-10T04:04:49;21.80;99.90
59847;DHT22;45728;48.788;2.302;2023-06-10T04:07:17;21.90;99.90
59847;DHT22;45728;48.788;2.302;2023-06-10T04:09:44;21.80;99.90
59847;DHT22;45728;48.788;2.302;2023-06-10T04:12:10;21.80;99.90
59847;DHT22;45728;48.788;2.302;2023-06-10T04:14:36;21.80;99.90
59847;DHT22;45728;48.788;2.302;2023-06-10T04:17:04;21.80;99.90
59847;DHT22;45728;48.788;2.302;2023-06-10T04:19:34;21.80;99.90
59847;DHT22;45728;48.788;2.302;2023-06-10T04:22:03;21.70;99.90
59847;DHT22;45728;48.788;2.302;2023-06-10T04:24:29;21.60;99.90
59847;DHT22;45728;48.788;2.302;2023-06-10T04:26:55;21.60;99.90
59847;DHT22;45728;48.788;2.302;2023-06-10T04:29:21;21.60;99.90
59847;DHT22;45728;48.788;2.302;2023-06-10T04:31:47;21.60;99.90
59847;DHT22;45728;48.788;2.302;2023-06-10T04:34:14;21.60;99.90
59847;DHT22;45728;48.788;2.302;2023-06-10T04:36:40;21.60;99.90
59847;DHT22;45728;48.788;2.302;2023-06-10T04:39:06;21.60;99.90
59847;DHT22;45728;48.788;2.302;2023-06-10T04:41:32;21.50;99.90
59847;DHT22;45728;48.788;2.302;2023-06-10T04:43:59;21.50;99.90
59847;DHT22;45728;48.788;2.302;2023-06-10T04:46:25;21.40;99.90
59847;DHT22;45728;48.788;2.302;2023-06-10T04:48:51;21.40;99.90
59847;DHT22;45728;48.788;2.302;2023-06-10T04:51:17;21.40;99.90
59847;DHT22;45728;48.788;2.302;2023-06-10T04:53:43;21.50;99.90
59847;DHT22;45728;48.788;2.302;2023-06-10T04:56:09;21.50;99.90
59847;DHT22;45728;48.788;2.302;2023-06-10T04:58:35;21.40;99.90
59847;DHT22;45728;48.788;2.302;2023-06-10T05:01:02;21.40;99.90
59847;DHT22;45728;48.788;2.302;2023-06-10T05:03:28;21.40;99.90
59847;DHT22;45728;48.788;2.302;2023-06-10T05:05:54;21.40;99.90
59847;DHT22;45728;48.788;2.302;2023-06-10T05:08:20;21.40;99.90
59847;DHT22;45728;48.788;2.302;2023-06-10T05:10:46;21.40;99.90
59847;DHT22;45728;48.788;2.302;2023-06-10T05:13:12;21.40;99.90
59847;DHT22;45728;48.788;2.302;2023-06-10T05:15:38;21.40;99.90
59847;DHT22;45728;48.788;2.302;2023-06-10T05:18:04;21.40;99.90
59847;DHT22;45728;48.788;2.302;2023-06-10T05:20:30;21.40;99.90
59847;DHT22;45728;48.788;2.302;2023-06-10T05:22:56;21.30;99.90
59847;DHT22;45728;48.788;2.302;2023-06-10T05:25:25;21.30;99.90
59847;DHT22;45728;48.788;2.302;2023-06-10T05:27:51;21.30;99.90
59847;DHT22;45728;48.788;2.302;2023-06-10T05:30:17;21.40;99.90
59847;DHT22;45728;48.788;2.302;2023-06-10T05:32:44;21.40;99.90
59847;DHT22;45728;48.788;2.302;2023-06-10T05:35:10;21.50;99.90
59847;DHT22;45728;48.788;2.302;2023-06-10T05:37:36;21.50;99.90
59847;DHT22;45728;48.788;2.302;2023-06-10T05:40:03;21.50;99.90
59847;DHT22;45728;48.788;2.302;2023-06-10T05:42:30;21.50;99.90
59847;DHT22;45728;48.788;2.302;2023-06-10T05:44:56;21.50;99.90
59847;DHT22;45728;48.788;2.302;2023-06-10T05:47:22;21.60;99.90
59847;DHT22;45728;48.788;2.302;2023-06-10T05:49:48;21.80;99.90
59847;DHT22;45728;48.788;2.302;2023-06-10T05:52:15;22.10;99.90
59847;DHT22;45728;48.788;2.302;2023-06-10T05:54:41;22.20;99.90
59847;DHT22;45728;48.788;2.302;2023-06-10T05:57:08;22.80;99.90
59847;DHT22;45728;48.788;2.302;2023-06-10T05:59:34;23.30;99.90
59847;DHT22;45728;48.788;2.302;2023-06-10T06:02:00;23.30;99.90
59847;DHT22;45728;48.788;2.302;2023-06-10T06:04:26;23.30;99.90
59847;DHT22;45728;48.788;2.302;2023-06-10T06:06:52;23.60;99.90
59847;DHT22;45728;48.788;2.302;2023-06-10T06:09:18;23.80;99.90
59847;DHT22;45728;48.788;2.302;2023-06-10T06:11:44;23.90;99.90
59847;DHT22;45728;48.788;2.302;2023-06-10T06:14:10;23.80;99.90
59847;DHT22;45728;48.788;2.302;2023-06-10T06:16:36;24.10;99.90
59847;DHT22;45728;48.788;2.302;2023-06-10T06:19:02;24.60;99.90
59847;DHT22;45728;48.788;2.302;2023-06-10T06:21:28;24.90;99.90
59847;DHT22;45728;48.788;2.302;2023-06-10T06:23:55;25.20;99.90
59847;DHT22;45728;48.788;2.302;2023-06-10T06:26:21;25.50;99.90
59847;DHT22;45728;48.788;2.302;2023-06-10T06:28:47;25.50;99.90
59847;DHT22;45728;48.788;2.302;2023-06-10T06:31:13;25.40;99.90
59847;DHT22;45728;48.788;2.302;2023-06-10T06:33:39;25.60;99.90
59847;DHT22;45728;48.788;2.302;2023-06-10T06:36:05;25.70;99.90
59847;DHT22;45728;48.788;2.302;2023-06-10T06:38:31;25.80;99.90
59847;DHT22;45728;48.788;2.302;2023-06-10T06:40:57;25.60;99.90
59847;DHT22;45728;48.788;2.302;2023-06-10T06:43:29;26.20;99.90
59847;DHT22;45728;48.788;2.302;2023-06-10T06:45:57;25.50;99.90
59847;DHT22;45728;48.788;2.302;2023-06-10T06:48:23;25.10;99.90
59847;DHT22;45728;48.788;2.302;2023-06-10T06:50:49;24.80;99.90
59847;DHT22;45728;48.788;2.302;2023-06-10T06:53:16;24.80;99.90
59847;DHT22;45728;48.788;2.302;2023-06-10T06:55:42;24.90;99.90
59847;DHT22;45728;48.788;2.302;2023-06-10T06:58:08;24.80;99.90
59847;DHT22;45728;48.788;2.302;2023-06-10T07:00:34;24.80;99.90
59847;DHT22;45728;48.788;2.302;2023-06-10T07:03:00;24.70;99.90
59847;DHT22;45728;48.788;2.302;2023-06-10T07:05:26;24.80;99.90
59847;DHT22;45728;48.788;2.302;2023-06-10T07:07:53;25.00;99.90
59847;DHT22;45728;48.788;2.302;2023-06-10T07:10:24;25.00;99.90
59847;DHT22;45728;48.788;2.302;2023-06-10T07:12:51;25.00;99.90
59847;DHT22;45728;48.788;2.302;2023-06-10T07:15:18;25.00;99.90
59847;DHT22;45728;48.788;2.302;2023-06-10T07:17:44;25.00;99.90
59847;DHT22;45728;48.788;2.302;2023-06-10T07:20:11;25.10;99.90
59847;DHT22;45728;48.788;2.302;2023-06-10T07:22:37;25.20;99.90
59847;DHT22;45728;48.788;2.302;2023-06-10T07:25:05;25.10;99.90
59847;DHT22;45728;48.788;2.302;2023-06-10T07:27:31;25.20;99.90
59847;DHT22;45728;48.788;2.302;2023-06-10T07:29:57;25.20;99.90
59847;DHT22;45728;48.788;2.302;2023-06-10T07:32:23;25.30;99.90
59847;DHT22;45728;48.788;2.302;2023-06-10T07:34:50;25.00;99.90
59847;DHT22;45728;48.788;2.302;2023-06-10T07:37:16;24.70;99.90
59847;DHT22;45728;48.788;2.302;2023-06-10T07:39:42;24.80;99.90
59847;DHT22;45728;48.788;2.302;2023-06-10T07:42:09;24.80;99.90
59847;DHT22;45728;48.788;2.302;2023-06-10T07:44:35;24.90;99.90
59847;DHT22;45728;48.788;2.302;2023-06-10T07:47:01;25.00;99.90
59847;DHT22;45728;48.788;2.302;2023-06-10T07:49:28;25.00;99.90
59847;DHT22;45728;48.788;2.302;2023-06-10T07:51:54;25.10;99.90
59847;DHT22;45728;48.788;2.302;2023-06-10T07:54:21;24.90;99.90
59847;DHT22;45728;48.788;2.302;2023-06-10T07:56:47;24.80;99.90
59847;DHT22;45728;48.788;2.302;2023-06-10T07:59:14;24.60;99.90
59847;DHT22;45728;48.788;2.302;2023-06-10T08:01:40;24.60;99.90
59847;DHT22;45728;48.788;2.302;2023-06-10T08:04:08;24.70;99.90
59847;DHT22;45728;48.788;2.302;2023-06-10T08:06:34;24.80;99.90
59847;DHT22;45728;48.788;2.302;2023-06-10T08:09:00;24.80;99.90
59847;DHT22;45728;48.788;2.302;2023-06-10T08:11:26;24.70;99.90
59847;DHT22;45728;48.788;2.302;2023-06-10T08:13:54;24.70;99.90
59847;DHT22;45728;48.788;2.302;2023-06-10T08:16:20;24.70;99.90
59847;DHT22;45728;48.788;2.302;2023-06-10T08:18:46;24.90;99.90
59847;DHT22;45728;48.788;2.302;2023-06-10T08:21:12;25.10;99.90
59847;DHT22;45728;48.788;2.302;2023-06-10T08:23:38;25.40;99.90
59847;DHT22;45728;48.788;2.302;2023-06-10T08:26:04;25.30;99.90
59847;DHT22;45728;48.788;2.302;2023-06-10T08:28:30;25.30;99.90
59847;DHT22;45728;48.788;2.302;2023-06-10T08:30:57;25.40;99.90
59847;DHT22;45728;48.788;2.302;2023-06-10T08:33:23;25.60;99.90
59847;DHT22;45728;48.788;2.302;2023-06-10T08:35:49;25.70;99.90
59847;DHT22;45728;48.788;2.302;2023-06-10T08:38:15;25.80;99.90
59847;DHT22;45728;48.788;2.302;2023-06-10T08:40:42;26.10;99.90
59847;DHT22;45728;48.788;2.302;2023-06-10T08:43:15;26.10;99.90
59847;DHT22;45728;48.788;2.302;2023-06-10T08:45:43;26.10;99.90
59847;DHT22;45728;48.788;2.302;2023-06-10T08:48:12;26.10;99.90
59847;DHT22;45728;48.788;2.302;2023-06-10T08:50:40;26.30;99.90
59847;DHT22;45728;48.788;2.302;2023-06-10T08:53:07;26.30;99.90
59847;DHT22;45728;48.788;2.302;2023-06-10T08:55:36;26.30;99.90
59847;DHT22;45728;48.788;2.302;2023-06-10T08:58:04;26.60;99.90
59847;DHT22;45728;48.788;2.302;2023-06-10T09:00:31;26.70;99.90
59847;DHT22;45728;48.788;2.302;2023-06-10T09:02:58;26.70;99.90
59847;DHT22;45728;48.788;2.302;2023-06-10T09:05:24;26.80;99.90
59847;DHT22;45728;48.788;2.302;2023-06-10T09:07:52;27.00;99.90
59847;DHT22;45728;48.788;2.302;2023-06-10T09:10:19;27.00;99.90
59847;DHT22;45728;48.788;2.302;2023-06-10T09:12:45;27.00;99.90
59847;DHT22;45728;48.788;2.302;2023-06-10T09:15:11;27.00;99.90
59847;DHT22;45728;48.788;2.302;2023-06-10T09:17:38;27.20;99.90
59847;DHT22;45728;48.788;2.302;2023-06-10T09:20:09;27.30;99.90
59847;DHT22;45728;48.788;2.302;2023-06-10T09:22:35;27.40;99.90
59847;DHT22;45728;48.788;2.302;2023-06-10T09:25:09;27.30;99.90
59847;DHT22;45728;48.788;2.302;2023-06-10T09:27:46;27.30;99.90
59847;DHT22;45728;48.788;2.302;2023-06-10T09:30:31;27.40;99.90
59847;DHT22;45728;48.788;2.302;2023-06-10T09:33:00;27.50;99.90
59847;DHT22;45728;48.788;2.302;2023-06-10T09:35:27;27.50;99.90
59847;DHT22;45728;48.788;2.302;2023-06-10T09:37:59;27.50;99.90
59847;DHT22;45728;48.788;2.302;2023-06-10T09:40:26;27.80;99.90
59847;DHT22;45728;48.788;2.302;2023-06-10T09:43:00;27.70;99.90
59847;DHT22;45728;48.788;2.302;2023-06-10T09:45:32;27.90;99.90
59847;DHT22;45728;48.788;2.302;2023-06-10T09:47:59;28.10;99.90
59847;DHT22;45728;48.788;2.302;2023-06-10T09:50:25;28.40;99.90
59847;DHT22;45728;48.788;2.302;2023-06-10T09:52:51;28.50;99.90
59847;DHT22;45728;48.788;2.302;2023-06-10T09:55:18;28.60;99.90
59847;DHT22;45728;48.788;2.302;2023-06-10T09:57:44;28.70;99.90
59847;DHT22;45728;48.788;2.302;2023-06-10T10:00:14;28.80;99.80
59847;DHT22;45728;48.788;2.302;2023-06-10T10:02:48;28.50;99.80
59847;DHT22;45728;48.788;2.302;2023-06-10T10:05:16;28.60;99.90
59847;DHT22;45728;48.788;2.302;2023-06-10T10:07:43;28.90;99.60
59847;DHT22;45728;48.788;2.302;2023-06-10T10:10:10;28.70;99.70
59847;DHT22;45728;48.788;2.302;2023-06-10T10:12:38;28.90;99.90
59847;DHT22;45728;48.788;2.302;2023-06-10T10:15:07;29.20;99.20
59847;DHT22;45728;48.788;2.302;2023-06-10T10:17:36;29.40;99.60
59847;DHT22;45728;48.788;2.302;2023-06-10T10:20:05;29.30;98.90
59847;DHT22;45728;48.788;2.302;2023-06-10T10:22:38;29.10;99.00
59847;DHT22;45728;48.788;2.302;2023-06-10T10:25:10;29.00;99.10
59847;DHT22;45728;48.788;2.302;2023-06-10T10:27:44;29.50;98.90
59847;DHT22;45728;48.788;2.302;2023-06-10T10:30:14;29.40;98.40
59847;DHT22;45728;48.788;2.302;2023-06-10T10:32:43;29.50;98.60
59847;DHT22;45728;48.788;2.302;2023-06-10T10:35:20;29.80;98.10
59847;DHT22;45728;48.788;2.302;2023-06-10T10:37:52;30.20;97.80
59847;DHT22;45728;48.788;2.302;2023-06-10T10:40:19;30.20;97.20
59847;DHT22;45728;48.788;2.302;2023-06-10T10:42:45;29.30;97.30
59847;DHT22;45728;48.788;2.302;2023-06-10T10:45:13;29.70;97.80
59847;DHT22;45728;48.788;2.302;2023-06-10T10:47:40;29.90;97.60
59847;DHT22;45728;48.788;2.302;2023-06-10T10:50:17;30.20;97.50
59847;DHT22;45728;48.788;2.302;2023-06-10T10:52:53;30.20;97.60
59847;DHT22;45728;48.788;2.302;2023-06-10T10:55:20;29.70;97.50
59847;DHT22;45728;48.788;2.302;2023-06-10T10:58:07;29.70;97.70
59847;DHT22;45728;48.788;2.302;2023-06-10T11:00:35;29.90;97.10
59847;DHT22;45728;48.788;2.302;2023-06-10T11:03:06;29.80;97.40
59847;DHT22;45728;48.788;2.302;2023-06-10T11:05:38;30.20;96.70
59847;DHT22;45728;48.788;2.302;2023-06-10T11:08:04;30.30;96.60
59847;DHT22;45728;48.788;2.302;2023-06-10T11:10:33;30.10;96.90
59847;DHT22;45728;48.788;2.302;2023-06-10T11:12:59;30.00;96.50
59847;DHT22;45728;48.788;2.302;2023-06-10T11:15:29;30.00;96.80
59847;DHT22;45728;48.788;2.302;2023-06-10T11:18:12;30.30;96.50
59847;DHT22;45728;48.788;2.302;2023-06-10T11:26:18;29.60;96.30
59847;DHT22;45728;48.788;2.302;2023-06-10T11:31:24;29.70;96.60
59847;DHT22;45728;48.788;2.302;2023-06-10T11:36:28;29.90;96.80
59847;DHT22;45728;48.788;2.302;2023-06-10T11:39:00;29.50;96.20
59847;DHT22;45728;48.788;2.302;2023-06-10T11:41:28;29.30;97.00
59847;DHT22;45728;48.788;2.302;2023-06-10T11:43:56;29.50;96.70
59847;DHT22;45728;48.788;2.302;2023-06-10T11:46:22;29.30;97.10
59847;DHT22;45728;48.788;2.302;2023-06-10T11:48:52;29.20;97.10
59847;DHT22;45728;48.788;2.302;2023-06-10T11:51:19;29.40;96.50
59847;DHT22;45728;48.788;2.302;2023-06-10T11:53:46;29.40;96.10
59847;DHT22;45728;48.788;2.302;2023-06-10T11:56:12;29.10;96.60
59847;DHT22;45728;48.788;2.302;2023-06-10T11:58:42;28.80;96.80
59847;DHT22;45728;48.788;2.302;2023-06-10T12:01:09;29.10;96.10
59847;DHT22;45728;48.788;2.302;2023-06-10T12:03:37;28.90;96.60
59847;DHT22;45728;48.788;2.302;2023-06-10T12:06:05;29.00;96.60
59847;DHT22;45728;48.788;2.302;2023-06-10T12:08:33;29.30;96.60
59847;DHT22;45728;48.788;2.302;2023-06-10T12:10:59;29.60;96.20
59847;DHT22;45728;48.788;2.302;2023-06-10T12:13:26;29.70;96.30
59847;DHT22;45728;48.788;2.302;2023-06-10T12:15:53;30.00;96.40
59847;DHT22;45728;48.788;2.302;2023-06-10T12:18:20;30.40;96.30
59847;DHT22;45728;48.788;2.302;2023-06-10T12:20:47;30.60;96.20
59847;DHT22;45728;48.788;2.302;2023-06-10T12:23:15;30.80;96.20
59847;DHT22;45728;48.788;2.302;2023-06-10T12:25:54;30.90;95.80
59847;DHT22;45728;48.788;2.302;2023-06-10T12:28:26;30.70;95.90
59847;DHT22;45728;48.788;2.302;2023-06-10T12:31:06;30.30;96.10
59847;DHT22;45728;48.788;2.302;2023-06-10T12:33:33;30.40;96.20
59847;DHT22;45728;48.788;2.302;2023-06-10T12:35:59;30.60;95.70
59847;DHT22;45728;48.788;2.302;2023-06-10T12:38:26;30.70;96.00
59847;DHT22;45728;48.788;2.302;2023-06-10T12:41:02;30.90;95.80
59847;DHT22;45728;48.788;2.302;2023-06-10T12:43:31;30.20;96.00
59847;DHT22;45728;48.788;2.302;2023-06-10T12:46:09;29.60;96.40
59847;DHT22;45728;48.788;2.302;2023-06-10T12:48:35;29.10;97.10
59847;DHT22;45728;48.788;2.302;2023-06-10T12:51:01;29.30;97.30
59847;DHT22;45728;48.788;2.302;2023-06-10T12:53:27;29.10;97.20
59847;DHT22;45728;48.788;2.302;2023-06-10T12:55:53;29.10;97.40
59847;DHT22;45728;48.788;2.302;2023-06-10T12:58:20;29.30;97.10
59847;DHT22;45728;48.788;2.302;2023-06-10T13:00:47;29.50;97.10
59847;DHT22;45728;48.788;2.302;2023-06-10T13:03:14;30.00;96.90
59847;DHT22;45728;48.788;2.302;2023-06-10T13:05:40;30.30;96.10
59847;DHT22;45728;48.788;2.302;2023-06-10T13:08:10;30.20;96.20
59847;DHT22;45728;48.788;2.302;2023-06-10T13:10:38;29.80;96.60
59847;DHT22;45728;48.788;2.302;2023-06-10T13:13:04;29.40;96.00
59847;DHT22;45728;48.788;2.302;2023-06-10T13:15:32;29.40;96.30
59847;DHT22;45728;48.788;2.302;2023-06-10T13:18:03;29.80;96.20
59847;DHT22;45728;48.788;2.302;2023-06-10T13:20:29;30.00;95.70
59847;DHT22;45728;48.788;2.302;2023-06-10T13:22:55;30.20;96.10
59847;DHT22;45728;48.788;2.302;2023-06-10T13:25:21;30.20;96.20
59847;DHT22;45728;48.788;2.302;2023-06-10T13:27:47;30.20;95.70
59847;DHT22;45728;48.788;2.302;2023-06-10T13:30:14;30.00;96.00
59847;DHT22;45728;48.788;2.302;2023-06-10T13:32:40;30.20;96.00
59847;DHT22;45728;48.788;2.302;2023-06-10T13:35:06;30.20;95.90
59847;DHT22;45728;48.788;2.302;2023-06-10T13:37:33;30.40;95.80
59847;DHT22;45728;48.788;2.302;2023-06-10T13:40:00;30.50;95.20
59847;DHT22;45728;48.788;2.302;2023-06-10T13:42:26;30.60;95.40
59847;DHT22;45728;48.788;2.302;2023-06-10T13:44:54;30.40;95.30
59847;DHT22;45728;48.788;2.302;2023-06-10T13:47:20;30.10;95.40
59847;DHT22;45728;48.788;2.302;2023-06-10T13:49:46;30.20;95.40
59847;DHT22;45728;48.788;2.302;2023-06-10T13:52:12;30.50;95.70
59847;DHT22;45728;48.788;2.302;2023-06-10T13:54:38;30.50;95.20
59847;DHT22;45728;48.788;2.302;2023-06-10T13:57:05;30.40;95.50
59847;DHT22;45728;48.788;2.302;2023-06-10T13:59:31;30.80;95.00
59847;DHT22;45728;48.788;2.302;2023-06-10T14:01:57;30.80;94.70
59847;DHT22;45728;48.788;2.302;2023-06-10T14:04:23;30.80;94.40
59847;DHT22;45728;48.788;2.302;2023-06-10T14:06:49;30.60;93.90
59847;DHT22;45728;48.788;2.302;2023-06-10T14:09:15;30.60;94.50
59847;DHT22;45728;48.788;2.302;2023-06-10T14:11:42;30.80;94.40
59847;DHT22;45728;48.788;2.302;2023-06-10T14:14:08;30.90;94.60
59847;DHT22;45728;48.788;2.302;2023-06-10T14:16:35;30.90;94.10
59847;DHT22;45728;48.788;2.302;2023-06-10T14:19:01;31.00;94.10
59847;DHT22;45728;48.788;2.302;2023-06-10T14:21:27;31.10;94.30
59847;DHT22;45728;48.788;2.302;2023-06-10T14:23:53;30.90;94.20
59847;DHT22;45728;48.788;2.302;2023-06-10T14:26:19;31.00;94.40
59847;DHT22;45728;48.788;2.302;2023-06-10T14:28:48;30.70;94.60
59847;DHT22;45728;48.788;2.302;2023-06-10T14:31:15;30.10;95.10
59847;DHT22;45728;48.788;2.302;2023-06-10T14:33:42;30.10;95.20
59847;DHT22;45728;48.788;2.302;2023-06-10T14:36:10;29.70;95.30
59847;DHT22;45728;48.788;2.302;2023-06-10T14:38:36;29.90;95.20
59847;DHT22;45728;48.788;2.302;2023-06-10T14:41:02;30.00;94.80
59847;DHT22;45728;48.788;2.302;2023-06-10T14:43:28;30.00;94.80
59847;DHT22;45728;48.788;2.302;2023-06-10T14:45:54;30.00;94.80
59847;DHT22;45728;48.788;2.302;2023-06-10T14:48:22;30.00;94.90
59847;DHT22;45728;48.788;2.302;2023-06-10T14:50:48;30.00;95.00
59847;DHT22;45728;48.788;2.302;2023-06-10T14:53:19;30.10;95.00
59847;DHT22;45728;48.788;2.302;2023-06-10T14:55:45;29.60;94.90
59847;DHT22;45728;48.788;2.302;2023-06-10T14:58:11;29.50;95.00
59847;DHT22;45728;48.788;2.302;2023-06-10T15:00:38;29.60;95.10
59847;DHT22;45728;48.788;2.302;2023-06-10T15:03:04;29.50;95.00
59847;DHT22;45728;48.788;2.302;2023-06-10T15:05:30;29.70;94.60
59847;DHT22;45728;48.788;2.302;2023-06-10T15:07:56;29.90;94.40
59847;DHT22;45728;48.788;2.302;2023-06-10T15:10:22;30.00;94.40
59847;DHT22;45728;48.788;2.302;2023-06-10T15:12:48;30.10;94.40
59847;DHT22;45728;48.788;2.302;2023-06-10T15:15:22;30.10;94.60
59847;DHT22;45728;48.788;2.302;2023-06-10T15:17:48;29.90;94.50
59847;DHT22;45728;48.788;2.302;2023-06-10T15:20:15;29.40;94.90
59847;DHT22;45728;48.788;2.302;2023-06-10T15:22:41;29.50;94.20
59847;DHT22;45728;48.788;2.302;2023-06-10T15:25:07;29.50;94.40
59847;DHT22;45728;48.788;2.302;2023-06-10T15:27:33;29.50;94.40
59847;DHT22;45728;48.788;2.302;2023-06-10T15:29:59;29.80;94.60
59847;DHT22;45728;48.788;2.302;2023-06-10T15:32:25;30.00;94.60
59847;DHT22;45728;48.788;2.302;2023-06-10T15:34:51;30.20;94.30
59847;DHT22;45728;48.788;2.302;2023-06-10T15:37:19;30.40;94.40
59847;DHT22;45728;48.788;2.302;2023-06-10T15:39:47;30.50;94.00
59847;DHT22;45728;48.788;2.302;2023-06-10T15:42:13;30.10;94.10
59847;DHT22;45728;48.788;2.302;2023-06-10T15:44:39;30.10;93.90